Share

Adel, OR

RAWS BARREL SPRINGS NV US (MBRLN2) Elev 5730 ft | 41.91 °N, 119.94 °W | Change Station

Current weather conditions updated 46 minutes ago

Partly Cloudy
Partly Cloudy
42 °F
Feels Like 40 °F
N
4
Wind Variable Wind from SW
Gusts 10.0 mph
Sunrise 6:08 AM
Sunset 7:47 PM
Moon Waning Gibbous

Today is forecast to be nearly the same temperature as yesterday.

Pressure 30.14 in
Visibility -9999.0 miles
Clouds
Windchill 40 °F
Dew Point 16 °F
Humidity 35%
Rainfall 0.00 in
Snow Depth Not available.
UV Not available.
Pollen 9.20 out of 12
Air Quality Not available.
Flu Activity Sporadic
METAR KREO 210952Z AUTO 05004KT 02/M10 A3016 RMK AO1 SLP206 T00221100

More Conditions Fewer Conditions

Pressure 30.14 in
Visibility -9999.0 miles
Clouds
Windchill 40 °F
Dew Point 16 °F
Humidity 35%
Rainfall 0.00 in
Snow Depth Not available.
UV Not available.
Pollen 9.20 out of 12
Air Quality Not available.
Flu Activity Sporadic
METAR KREO 210952Z AUTO 05004KT 02/M10 A3016 RMK AO1 SLP206 T00221100

More Conditions Fewer Conditions

10-Day Weather Forecast

Almanac

Astronomy

Apr. 21, 2014 Rise Set
Actual Time 6:08 AM PDT 7:47 PM PDT
Civil Twilight 5:39 AM PDT 8:16 PM PDT
Nautical Twilight 5:03 AM PDT 8:52 PM PDT
Astronomical Twilight 4:25 AM PDT 9:31 PM PDT
Moon 1:22 AM PDT 11:39 AM PDT
Length of Visible Light 14h 37m
Length of Day
13h 38m
Tomorrow will be 2m 38s longer.
Waning Gibbous, 60% of the Moon is Illuminated
Today
Waning Gibbous
Apr 22
Last Quarter
Apr 29
New
May 6
First Quarter
May 14
Full

Today's Extremes

State Highs State Lows

Community

  • Snowy Robin
    Snowy Robin
  • Sun Pillar and Geese
    Sun Pillar and Geese
  • Showers on the Way
    Showers on the Way
  • Easter Morning Fog
    Easter Morning Fog
  • Easter Dance
    Easter Dance

WunderPhotos

Upload Photos

1,703,587 photos uploaded!

WunderBlogs® & News

Nearby

Snow Depth

Station Depth Elevation
Quartz Mountain 0 in 5700 ft
Fish Creek 47 in 7900 ft
Summer Rim 16 in 7100 ft
Crazyman Flat 0 in 6100 ft
Gerber Reservoir 0 in 4850 ft

Coastal Water Temperatures

Place Temperature
No Stations Reporting

Earthquake Activity

City Distance Mag. Time & Date
No recent earthquake activity has been reported nearby.
Minimum magnitude displayed is 2.5.

Nearby Weather Stations

Station Location Temp. Windchill Dew Point Humidity Wind Precip. Elev Updated Type
RAWS CATNIP MOUNTAIN NV, Adel, OR 42 °F 35 °F 10 °F 27% South  at  12 mph 0.00 in / hr 5750 ft 2:27 AM PDT MADIS
RAWS BARREL SPRINGS NV, Fort Bidwell, CA 42 °F 40 °F 16 °F 35% SW  at  4 mph 0.00 in / hr 5730 ft 2:59 AM PDT MADIS
RAWS ROCK CREEK OR, Plush, OR 45 °F 40 °F 15 °F 29% SSW  at  10 mph 0.00 in / hr 5649 ft 2:27 AM PDT MADIS

Show More Stations Show Fewer Stations

What do you think?

We're not finished. Please let us know what you like, what you don't like, and what you are still missing.